Eastern Wv Regional Shepherd Field Martinsburg US
ICAO: KMRB
IATA: MRB
Category: Medium
Scheduled Services: No

Elevation: 565 ft
TransAlt. 18000 ft.

Airport Communications:
POTOMAC APP/DEP:126.1
ASOS:119.925
POTOMAC CLNC DEL:132.075
CTAF:124.3
GND:121.8
PIKESIDE CON ANG:29.7
ELKINS RDO:122.45
MARTINSBURG TWR:124.3
UNICOM:122.95

KMRB Zoom In..

Runways:

(A) RW 08 length 8815 ft width 150 ft
---- / hdg 79

(B) RW 26 length 8815 ft width 150 ft
ILS 108.30 / hdg 259

Location; KMRB
Day. 14 / Time. 13.53 Zulu
* Altimeter: 29.97
* Temperature: 22° c. 71.6°f.
* Wind from: 170° Speed 05 kn.
Dewpoint: 17° c.
Visibility: 10 Statute Miles.
Clouds: Broken 11000 ft.

KMRB 141353Z 17005KT 10SM BKN110 22/17 A2997 RMK AO2 SLP145 T02220167


Wind From 170°
Speed 05 kn.

 
 
jpsmedia.com for Web Design worldairports.se 2018   terms of use